Bogota, Colombia
Current Conditions -  °F | °C
As of 4:00 PM on Sunday 23 Nov 2014 (Local Time) from SKBO Reporting Station
Few Clouds Few Clouds  
Wind Chill: 68°   Ceiling: Unl
Heat Index: 68°   Visibility: 6mi
Dew Point: 48°   Wind: 10mph
Humidity: 49%   Direction: 130°SE
Pressure: 30.19"   Gusts: NA
Location:  4.63°N, 74.09°W
Report Text: SKBO 232100Z 13009KT 9999 FEW020 20/09 A3019
Loading
Personal Weather Stations






























Interactive Weather Map New forecast layout! Learn more

10-Day Weather Forecast

Advertisements
Track Severe Weather on mobile